sensor_id;sensor_type;location;lat;lon;timestamp;temperature;humidity
21282;DHT22;10800;53.096;18.328;2023-03-11T00:00:30;1.70;99.90
21282;DHT22;10800;53.096;18.328;2023-03-11T00:05:39;1.70;99.90
21282;DHT22;10800;53.096;18.328;2023-03-11T00:10:47;1.60;99.90
21282;DHT22;10800;53.096;18.328;2023-03-11T00:15:54;1.60;99.90
21282;DHT22;10800;53.096;18.328;2023-03-11T00:21:00;1.60;99.90
21282;DHT22;10800;53.096;18.328;2023-03-11T00:26:06;1.60;99.90
21282;DHT22;10800;53.096;18.328;2023-03-11T00:31:12;1.60;99.90
21282;DHT22;10800;53.096;18.328;2023-03-11T00:36:26;1.60;99.90
21282;DHT22;10800;53.096;18.328;2023-03-11T00:41:26;1.60;99.90
21282;DHT22;10800;53.096;18.328;2023-03-11T00:46:33;1.60;99.90
21282;DHT22;10800;53.096;18.328;2023-03-11T00:51:39;1.60;99.90
21282;DHT22;10800;53.096;18.328;2023-03-11T00:56:44;1.50;99.90
21282;DHT22;10800;53.096;18.328;2023-03-11T01:01:49;1.50;99.90
21282;DHT22;10800;53.096;18.328;2023-03-11T01:06:55;1.50;99.90
21282;DHT22;10800;53.096;18.328;2023-03-11T01:12:00;1.60;99.90
21282;DHT22;10800;53.096;18.328;2023-03-11T01:17:05;1.50;99.90
21282;DHT22;10800;53.096;18.328;2023-03-11T01:22:11;1.50;99.90
21282;DHT22;10800;53.096;18.328;2023-03-11T01:27:17;1.50;99.90
21282;DHT22;10800;53.096;18.328;2023-03-11T01:32:22;1.50;99.90
21282;DHT22;10800;53.096;18.328;2023-03-11T01:37:28;1.50;99.90
21282;DHT22;10800;53.096;18.328;2023-03-11T01:42:33;1.50;99.90
21282;DHT22;10800;53.096;18.328;2023-03-11T01:47:39;1.50;99.90
21282;DHT22;10800;53.096;18.328;2023-03-11T01:52:46;1.50;99.90
21282;DHT22;10800;53.096;18.328;2023-03-11T01:57:53;1.50;99.90
21282;DHT22;10800;53.096;18.328;2023-03-11T02:03:01;1.50;99.90
21282;DHT22;10800;53.096;18.328;2023-03-11T02:08:08;1.40;99.90
21282;DHT22;10800;53.096;18.328;2023-03-11T02:13:15;1.40;99.90
21282;DHT22;10800;53.096;18.328;2023-03-11T02:18:20;1.40;99.90
21282;DHT22;10800;53.096;18.328;2023-03-11T02:23:29;1.40;99.90
21282;DHT22;10800;53.096;18.328;2023-03-11T02:28:35;1.40;99.90
21282;DHT22;10800;53.096;18.328;2023-03-11T02:33:42;1.40;99.90
21282;DHT22;10800;53.096;18.328;2023-03-11T02:38:48;1.40;99.90
21282;DHT22;10800;53.096;18.328;2023-03-11T02:43:53;1.40;99.90
21282;DHT22;10800;53.096;18.328;2023-03-11T02:48:59;1.40;99.90
21282;DHT22;10800;53.096;18.328;2023-03-11T02:54:05;1.40;99.90
21282;DHT22;10800;53.096;18.328;2023-03-11T02:59:12;1.40;99.90
21282;DHT22;10800;53.096;18.328;2023-03-11T03:04:17;1.40;99.90
21282;DHT22;10800;53.096;18.328;2023-03-11T03:09:22;1.40;99.90
21282;DHT22;10800;53.096;18.328;2023-03-11T03:14:29;1.40;99.90
21282;DHT22;10800;53.096;18.328;2023-03-11T03:19:35;1.40;99.90
21282;DHT22;10800;53.096;18.328;2023-03-11T03:24:40;1.30;99.90
21282;DHT22;10800;53.096;18.328;2023-03-11T03:29:45;1.40;99.90
21282;DHT22;10800;53.096;18.328;2023-03-11T03:34:51;1.30;99.90
21282;DHT22;10800;53.096;18.328;2023-03-11T03:39:58;1.40;99.90
21282;DHT22;10800;53.096;18.328;2023-03-11T03:45:05;1.40;99.90
21282;DHT22;10800;53.096;18.328;2023-03-11T03:50:11;1.40;99.90
21282;DHT22;10800;53.096;18.328;2023-03-11T03:55:17;1.30;99.90
21282;DHT22;10800;53.096;18.328;2023-03-11T04:00:22;1.30;99.90
21282;DHT22;10800;53.096;18.328;2023-03-11T04:05:27;1.30;99.90
21282;DHT22;10800;53.096;18.328;2023-03-11T04:10:33;1.30;99.90
21282;DHT22;10800;53.096;18.328;2023-03-11T04:15:38;1.30;99.90
21282;DHT22;10800;53.096;18.328;2023-03-11T04:20:44;1.30;99.90
21282;DHT22;10800;53.096;18.328;2023-03-11T04:25:49;1.30;99.90
21282;DHT22;10800;53.096;18.328;2023-03-11T04:30:55;1.20;99.90
21282;DHT22;10800;53.096;18.328;2023-03-11T04:36:05;1.20;99.90
21282;DHT22;10800;53.096;18.328;2023-03-11T04:41:10;1.20;99.90
21282;DHT22;10800;53.096;18.328;2023-03-11T04:46:16;1.20;99.90
21282;DHT22;10800;53.096;18.328;2023-03-11T04:51:21;1.20;99.90
21282;DHT22;10800;53.096;18.328;2023-03-11T04:56:26;1.30;99.90
21282;DHT22;10800;53.096;18.328;2023-03-11T05:01:32;1.30;99.90
21282;DHT22;10800;53.096;18.328;2023-03-11T05:06:39;1.20;99.90
21282;DHT22;10800;53.096;18.328;2023-03-11T05:11:44;1.30;99.90
21282;DHT22;10800;53.096;18.328;2023-03-11T05:16:50;1.30;99.90
21282;DHT22;10800;53.096;18.328;2023-03-11T05:21:55;1.20;99.90
21282;DHT22;10800;53.096;18.328;2023-03-11T05:27:01;1.20;99.90
21282;DHT22;10800;53.096;18.328;2023-03-11T05:32:06;1.20;99.90
21282;DHT22;10800;53.096;18.328;2023-03-11T05:37:12;1.10;99.90
21282;DHT22;10800;53.096;18.328;2023-03-11T05:42:17;1.20;99.90
21282;DHT22;10800;53.096;18.328;2023-03-11T05:47:24;1.10;99.90
21282;DHT22;10800;53.096;18.328;2023-03-11T05:52:34;1.20;99.90
21282;DHT22;10800;53.096;18.328;2023-03-11T05:57:42;1.10;99.90
21282;DHT22;10800;53.096;18.328;2023-03-11T06:02:48;1.10;99.90
21282;DHT22;10800;53.096;18.328;2023-03-11T06:08:17;1.10;99.90
21282;DHT22;10800;53.096;18.328;2023-03-11T06:13:23;1.10;99.90
21282;DHT22;10800;53.096;18.328;2023-03-11T06:18:29;1.20;99.90
21282;DHT22;10800;53.096;18.328;2023-03-11T06:23:35;1.20;99.90
21282;DHT22;10800;53.096;18.328;2023-03-11T06:28:46;1.20;99.90
21282;DHT22;10800;53.096;18.328;2023-03-11T06:33:56;1.20;99.90
21282;DHT22;10800;53.096;18.328;2023-03-11T06:39:03;1.20;99.90
21282;DHT22;10800;53.096;18.328;2023-03-11T06:44:12;1.20;99.90
21282;DHT22;10800;53.096;18.328;2023-03-11T06:49:17;1.20;99.90
21282;DHT22;10800;53.096;18.328;2023-03-11T06:54:24;1.20;99.90
21282;DHT22;10800;53.096;18.328;2023-03-11T06:59:29;1.20;99.90
21282;DHT22;10800;53.096;18.328;2023-03-11T07:04:34;1.20;99.90
21282;DHT22;10800;53.096;18.328;2023-03-11T07:09:41;1.20;99.90
21282;DHT22;10800;53.096;18.328;2023-03-11T07:14:48;1.20;99.90
21282;DHT22;10800;53.096;18.328;2023-03-11T07:19:53;1.20;99.90
21282;DHT22;10800;53.096;18.328;2023-03-11T07:24:59;1.20;99.90
21282;DHT22;10800;53.096;18.328;2023-03-11T07:30:04;1.20;99.90
21282;DHT22;10800;53.096;18.328;2023-03-11T07:35:09;1.30;99.90
21282;DHT22;10800;53.096;18.328;2023-03-11T07:40:15;1.30;99.90
21282;DHT22;10800;53.096;18.328;2023-03-11T07:45:20;1.40;99.90
21282;DHT22;10800;53.096;18.328;2023-03-11T07:50:25;1.40;99.90
21282;DHT22;10800;53.096;18.328;2023-03-11T07:55:31;1.30;99.90
21282;DHT22;10800;53.096;18.328;2023-03-11T08:00:36;1.30;99.90
21282;DHT22;10800;53.096;18.328;2023-03-11T08:05:41;1.20;99.90
21282;DHT22;10800;53.096;18.328;2023-03-11T08:10:47;1.20;99.90
21282;DHT22;10800;53.096;18.328;2023-03-11T08:15:52;1.20;99.90
21282;DHT22;10800;53.096;18.328;2023-03-11T08:21:02;1.10;99.90
21282;DHT22;10800;53.096;18.328;2023-03-11T08:26:08;1.10;99.90
21282;DHT22;10800;53.096;18.328;2023-03-11T08:31:16;1.00;99.90
21282;DHT22;10800;53.096;18.328;2023-03-11T08:36:22;0.90;99.90
21282;DHT22;10800;53.096;18.328;2023-03-11T08:41:29;1.00;99.90
21282;DHT22;10800;53.096;18.328;2023-03-11T08:46:36;1.00;99.90
21282;DHT22;10800;53.096;18.328;2023-03-11T08:51:42;1.00;99.90
21282;DHT22;10800;53.096;18.328;2023-03-11T08:56:47;0.90;99.90
21282;DHT22;10800;53.096;18.328;2023-03-11T09:01:52;0.90;99.90
21282;DHT22;10800;53.096;18.328;2023-03-11T09:06:58;0.90;99.90
21282;DHT22;10800;53.096;18.328;2023-03-11T09:12:03;0.90;99.90
21282;DHT22;10800;53.096;18.328;2023-03-11T09:17:10;0.90;99.90
21282;DHT22;10800;53.096;18.328;2023-03-11T09:22:17;0.90;99.90
21282;DHT22;10800;53.096;18.328;2023-03-11T09:27:23;0.90;99.90
21282;DHT22;10800;53.096;18.328;2023-03-11T09:32:28;0.90;99.90
21282;DHT22;10800;53.096;18.328;2023-03-11T09:37:34;1.00;99.90
21282;DHT22;10800;53.096;18.328;2023-03-11T09:48:40;0.90;99.90
21282;DHT22;10800;53.096;18.328;2023-03-11T10:03:42;1.00;99.90
21282;DHT22;10800;53.096;18.328;2023-03-11T10:25:10;1.10;99.90
21282;DHT22;10800;53.096;18.328;2023-03-11T10:30:19;1.10;99.90
21282;DHT22;10800;53.096;18.328;2023-03-11T10:35:34;1.20;99.90
21282;DHT22;10800;53.096;18.328;2023-03-11T10:40:38;1.30;99.90
21282;DHT22;10800;53.096;18.328;2023-03-11T10:45:44;1.50;99.90
21282;DHT22;10800;53.096;18.328;2023-03-11T10:51:03;1.80;99.90
21282;DHT22;10800;53.096;18.328;2023-03-11T10:56:21;1.90;99.90
21282;DHT22;10800;53.096;18.328;2023-03-11T11:01:32;1.80;99.90
21282;DHT22;10800;53.096;18.328;2023-03-11T11:06:47;1.70;99.90
21282;DHT22;10800;53.096;18.328;2023-03-11T11:12:02;1.80;99.90
21282;DHT22;10800;53.096;18.328;2023-03-11T11:17:31;1.80;99.90
21282;DHT22;10800;53.096;18.328;2023-03-11T11:22:18;1.90;99.90
21282;DHT22;10800;53.096;18.328;2023-03-11T11:27:26;2.10;99.90
21282;DHT22;10800;53.096;18.328;2023-03-11T11:32:32;2.10;99.90
21282;DHT22;10800;53.096;18.328;2023-03-11T11:37:56;2.10;99.90
21282;DHT22;10800;53.096;18.328;2023-03-11T11:43:08;2.10;99.90
21282;DHT22;10800;53.096;18.328;2023-03-11T11:48:27;2.20;99.90
21282;DHT22;10800;53.096;18.328;2023-03-11T11:53:38;2.20;99.90
21282;DHT22;10800;53.096;18.328;2023-03-11T11:58:43;2.00;99.90
21282;DHT22;10800;53.096;18.328;2023-03-11T12:14:36;1.90;99.90
21282;DHT22;10800;53.096;18.328;2023-03-11T12:19:52;2.10;99.90
21282;DHT22;10800;53.096;18.328;2023-03-11T12:30:35;2.20;99.90
21282;DHT22;10800;53.096;18.328;2023-03-11T12:35:47;2.10;99.90
21282;DHT22;10800;53.096;18.328;2023-03-11T12:41:05;1.90;99.90
21282;DHT22;10800;53.096;18.328;2023-03-11T12:46:13;1.90;99.90
21282;DHT22;10800;53.096;18.328;2023-03-11T12:56:39;2.00;99.90
21282;DHT22;10800;53.096;18.328;2023-03-11T13:01:50;2.00;99.90
21282;DHT22;10800;53.096;18.328;2023-03-11T13:23:22;2.40;99.90
21282;DHT22;10800;53.096;18.328;2023-03-11T13:33:58;2.30;99.90
21282;DHT22;10800;53.096;18.328;2023-03-11T13:39:14;2.30;99.90
21282;DHT22;10800;53.096;18.328;2023-03-11T13:49:58;2.60;99.90
21282;DHT22;10800;53.096;18.328;2023-03-11T13:54:54;2.80;99.90
21282;DHT22;10800;53.096;18.328;2023-03-11T14:00:11;2.80;99.90
21282;DHT22;10800;53.096;18.328;2023-03-11T14:05:14;2.80;99.90
21282;DHT22;10800;53.096;18.328;2023-03-11T14:10:24;2.70;99.90
21282;DHT22;10800;53.096;18.328;2023-03-11T14:15:36;2.60;99.90
21282;DHT22;10800;53.096;18.328;2023-03-11T14:20:38;2.60;99.90
21282;DHT22;10800;53.096;18.328;2023-03-11T14:25:44;2.50;99.90
21282;DHT22;10800;53.096;18.328;2023-03-11T14:31:05;2.50;99.90
21282;DHT22;10800;53.096;18.328;2023-03-11T14:36:12;2.50;99.90
21282;DHT22;10800;53.096;18.328;2023-03-11T14:41:19;2.40;99.90
21282;DHT22;10800;53.096;18.328;2023-03-11T14:46:26;2.30;99.90
21282;DHT22;10800;53.096;18.328;2023-03-11T14:51:33;2.10;99.90
21282;DHT22;10800;53.096;18.328;2023-03-11T14:56:41;2.10;99.90
21282;DHT22;10800;53.096;18.328;2023-03-11T15:01:48;2.40;99.90
21282;DHT22;10800;53.096;18.328;2023-03-11T15:06:55;2.40;99.90
21282;DHT22;10800;53.096;18.328;2023-03-11T15:12:03;2.50;99.90
21282;DHT22;10800;53.096;18.328;2023-03-11T15:17:23;2.40;99.90
21282;DHT22;10800;53.096;18.328;2023-03-11T15:22:40;2.40;99.90
21282;DHT22;10800;53.096;18.328;2023-03-11T15:27:52;2.60;99.90
21282;DHT22;10800;53.096;18.328;2023-03-11T15:32:58;2.60;99.90
21282;DHT22;10800;53.096;18.328;2023-03-11T15:38:17;2.50;99.90
21282;DHT22;10800;53.096;18.328;2023-03-11T15:43:29;2.30;99.90
21282;DHT22;10800;53.096;18.328;2023-03-11T15:48:35;2.30;99.90
21282;DHT22;10800;53.096;18.328;2023-03-11T15:53:40;2.20;99.90
21282;DHT22;10800;53.096;18.328;2023-03-11T15:58:45;2.10;99.90
21282;DHT22;10800;53.096;18.328;2023-03-11T16:03:51;2.00;99.90
21282;DHT22;10800;53.096;18.328;2023-03-11T16:08:56;1.90;99.90
21282;DHT22;10800;53.096;18.328;2023-03-11T16:14:02;1.90;99.90
21282;DHT22;10800;53.096;18.328;2023-03-11T16:19:08;1.90;99.90
21282;DHT22;10800;53.096;18.328;2023-03-11T16:24:18;1.80;99.90
21282;DHT22;10800;53.096;18.328;2023-03-11T16:29:25;1.70;99.90
21282;DHT22;10800;53.096;18.328;2023-03-11T16:34:30;1.60;99.90
21282;DHT22;10800;53.096;18.328;2023-03-11T16:39:35;1.50;99.90
21282;DHT22;10800;53.096;18.328;2023-03-11T16:44:42;1.50;99.90
21282;DHT22;10800;53.096;18.328;2023-03-11T16:49:47;1.40;99.90
21282;DHT22;10800;53.096;18.328;2023-03-11T16:54:54;1.20;99.90
21282;DHT22;10800;53.096;18.328;2023-03-11T17:00:00;1.10;99.90
21282;DHT22;10800;53.096;18.328;2023-03-11T17:05:06;1.00;99.90
21282;DHT22;10800;53.096;18.328;2023-03-11T17:10:12;1.00;99.90
21282;DHT22;10800;53.096;18.328;2023-03-11T17:15:17;0.90;99.90
21282;DHT22;10800;53.096;18.328;2023-03-11T17:20:22;0.80;99.90
21282;DHT22;10800;53.096;18.328;2023-03-11T17:25:28;0.80;99.90
21282;DHT22;10800;53.096;18.328;2023-03-11T17:30:33;0.80;99.90
21282;DHT22;10800;53.096;18.328;2023-03-11T17:35:40;0.80;99.90
21282;DHT22;10800;53.096;18.328;2023-03-11T17:40:45;0.80;99.90
21282;DHT22;10800;53.096;18.328;2023-03-11T17:45:50;0.90;99.90
21282;DHT22;10800;53.096;18.328;2023-03-11T17:50:57;0.90;99.90
21282;DHT22;10800;53.096;18.328;2023-03-11T17:56:02;1.00;99.90
21282;DHT22;10800;53.096;18.328;2023-03-11T18:01:27;1.00;99.90
21282;DHT22;10800;53.096;18.328;2023-03-11T18:06:32;0.90;99.90
21282;DHT22;10800;53.096;18.328;2023-03-11T18:11:38;0.90;99.90
21282;DHT22;10800;53.096;18.328;2023-03-11T18:16:43;1.00;99.90
21282;DHT22;10800;53.096;18.328;2023-03-11T18:21:50;1.00;99.90
21282;DHT22;10800;53.096;18.328;2023-03-11T18:26:56;1.00;99.90
21282;DHT22;10800;53.096;18.328;2023-03-11T18:32:01;0.80;99.90
21282;DHT22;10800;53.096;18.328;2023-03-11T18:37:06;0.70;99.90
21282;DHT22;10800;53.096;18.328;2023-03-11T18:42:33;0.60;99.90
21282;DHT22;10800;53.096;18.328;2023-03-11T18:47:38;0.60;99.90
21282;DHT22;10800;53.096;18.328;2023-03-11T18:52:44;0.60;99.90
21282;DHT22;10800;53.096;18.328;2023-03-11T18:57:49;0.50;99.90
21282;DHT22;10800;53.096;18.328;2023-03-11T19:02:56;0.50;99.90
21282;DHT22;10800;53.096;18.328;2023-03-11T19:08:01;0.40;99.90
21282;DHT22;10800;53.096;18.328;2023-03-11T19:13:07;0.40;99.90
21282;DHT22;10800;53.096;18.328;2023-03-11T19:18:12;0.30;99.90
21282;DHT22;10800;53.096;18.328;2023-03-11T19:23:18;0.30;99.90
21282;DHT22;10800;53.096;18.328;2023-03-11T19:28:23;0.30;99.90
21282;DHT22;10800;53.096;18.328;2023-03-11T19:33:29;0.30;99.90
21282;DHT22;10800;53.096;18.328;2023-03-11T19:38:34;0.30;99.90
21282;DHT22;10800;53.096;18.328;2023-03-11T19:43:40;0.30;99.90
21282;DHT22;10800;53.096;18.328;2023-03-11T19:48:47;0.20;99.90
21282;DHT22;10800;53.096;18.328;2023-03-11T19:53:52;0.20;99.90
21282;DHT22;10800;53.096;18.328;2023-03-11T19:58:58;0.20;99.90
21282;DHT22;10800;53.096;18.328;2023-03-11T20:04:03;0.10;99.90
21282;DHT22;10800;53.096;18.328;2023-03-11T20:09:09;0.10;99.90
21282;DHT22;10800;53.096;18.328;2023-03-11T20:14:18;0.00;99.90
21282;DHT22;10800;53.096;18.328;2023-03-11T20:19:23;0.00;99.90
21282;DHT22;10800;53.096;18.328;2023-03-11T20:24:28;-0.10;99.90
21282;DHT22;10800;53.096;18.328;2023-03-11T20:29:34;-0.10;99.90
21282;DHT22;10800;53.096;18.328;2023-03-11T20:34:39;-0.10;99.90
21282;DHT22;10800;53.096;18.328;2023-03-11T20:39:44;-0.10;99.90
21282;DHT22;10800;53.096;18.328;2023-03-11T20:44:53;-0.10;99.90
21282;DHT22;10800;53.096;18.328;2023-03-11T20:49:58;-0.20;99.90
21282;DHT22;10800;53.096;18.328;2023-03-11T20:55:04;-0.20;99.90
21282;DHT22;10800;53.096;18.328;2023-03-11T21:00:12;-0.20;99.90
21282;DHT22;10800;53.096;18.328;2023-03-11T21:05:18;-0.30;99.90
21282;DHT22;10800;53.096;18.328;2023-03-11T21:10:23;-0.30;99.90
21282;DHT22;10800;53.096;18.328;2023-03-11T21:15:29;-0.30;99.90
21282;DHT22;10800;53.096;18.328;2023-03-11T21:20:36;-0.30;99.90
21282;DHT22;10800;53.096;18.328;2023-03-11T21:25:41;-0.30;99.90
21282;DHT22;10800;53.096;18.328;2023-03-11T21:30:47;-0.30;99.90
21282;DHT22;10800;53.096;18.328;2023-03-11T21:35:55;-0.40;99.90
21282;DHT22;10800;53.096;18.328;2023-03-11T21:46:15;-0.40;99.90
21282;DHT22;10800;53.096;18.328;2023-03-11T21:51:21;-0.40;99.90
21282;DHT22;10800;53.096;18.328;2023-03-11T21:56:26;-0.30;99.90
21282;DHT22;10800;53.096;18.328;2023-03-11T22:01:32;-0.30;99.90
21282;DHT22;10800;53.096;18.328;2023-03-11T22:06:38;-0.20;99.90
21282;DHT22;10800;53.096;18.328;2023-03-11T22:11:43;-0.10;99.90
21282;DHT22;10800;53.096;18.328;2023-03-11T22:16:48;0.00;99.90
21282;DHT22;10800;53.096;18.328;2023-03-11T22:21:54;0.10;99.90
21282;DHT22;10800;53.096;18.328;2023-03-11T22:26:59;0.10;99.90
21282;DHT22;10800;53.096;18.328;2023-03-11T22:32:05;0.20;99.90
21282;DHT22;10800;53.096;18.328;2023-03-11T22:37:10;0.30;99.90
21282;DHT22;10800;53.096;18.328;2023-03-11T22:42:15;0.30;99.90
21282;DHT22;10800;53.096;18.328;2023-03-11T22:47:21;0.40;99.90
21282;DHT22;10800;53.096;18.328;2023-03-11T22:52:28;0.50;99.90
21282;DHT22;10800;53.096;18.328;2023-03-11T22:57:32;0.60;99.90
21282;DHT22;10800;53.096;18.328;2023-03-11T23:02:39;0.60;99.90
21282;DHT22;10800;53.096;18.328;2023-03-11T23:07:44;0.60;99.90
21282;DHT22;10800;53.096;18.328;2023-03-11T23:12:50;0.80;99.90
21282;DHT22;10800;53.096;18.328;2023-03-11T23:17:55;0.80;99.90
21282;DHT22;10800;53.096;18.328;2023-03-11T23:23:00;0.80;99.90
21282;DHT22;10800;53.096;18.328;2023-03-11T23:28:06;0.90;99.90
21282;DHT22;10800;53.096;18.328;2023-03-11T23:33:12;0.90;99.90
21282;DHT22;10800;53.096;18.328;2023-03-11T23:38:17;0.90;99.90
21282;DHT22;10800;53.096;18.328;2023-03-11T23:43:23;1.00;99.90
21282;DHT22;10800;53.096;18.328;2023-03-11T23:48:29;1.00;99.90
21282;DHT22;10800;53.096;18.328;2023-03-11T23:53:34;1.00;99.90
21282;DHT22;10800;53.096;18.328;2023-03-11T23:58:40;1.00;99.90
